Terminal Aerodrome Forecast
Issued by NWS

Home | Current Version | Previous Version | Text Only | Print | Product List | Glossary On
Versions: 1 2 3 4 5 6 7 8 9 10 11 12 13 14 15 16 17 18 19 20 21 22 23 24 25 26 27 28 29 30 31 32
000
FTUS43 KPAH 301200 AAA
TAFOWB
TAF AMD
KOWB 301242Z 3013/3112 20004KT P6SM BKN040
      TEMPO 3014/3017 2SM TSRA BR BKN040CB
     FM301700 20008KT 6SM -SHRA BR VCTS SCT035CB OVC050
     FM310300 20005KT 5SM BR OVC040
     FM310500 19005KT 4SM BR OVC020
     FM310800 18004KT 4SM BR OVC007=

USA.gov is the U.S. government's official web portal to all federal, state and local government web resources and services.